sensor_id;sensor_type;location;lat;lon;timestamp;pressure;altitude;pressure_sealevel;temperature;humidity
55187;BME280;55457;52.002;5.464;2024-01-06T00:01:59;100157.69;;;21.95;44.99
55187;BME280;55457;52.002;5.464;2024-01-06T00:04:25;100147.91;;;21.94;44.89
55187;BME280;55457;52.002;5.464;2024-01-06T00:06:50;100159.88;;;21.93;44.86
55187;BME280;55457;52.002;5.464;2024-01-06T00:09:15;100162.56;;;21.93;44.99
55187;BME280;55457;52.002;5.464;2024-01-06T00:11:40;100166.91;;;21.94;44.78
55187;BME280;55457;52.002;5.464;2024-01-06T00:14:06;100161.50;;;21.94;45.16
55187;BME280;55457;52.002;5.464;2024-01-06T00:16:31;100176.13;;;21.93;44.78
55187;BME280;55457;52.002;5.464;2024-01-06T00:18:56;100177.19;;;21.92;45.12
55187;BME280;55457;52.002;5.464;2024-01-06T00:21:24;100182.63;;;21.92;45.23
55187;BME280;55457;52.002;5.464;2024-01-06T00:23:49;100188.06;;;21.92;44.87
55187;BME280;55457;52.002;5.464;2024-01-06T00:26:14;100194.56;;;21.91;44.83
55187;BME280;55457;52.002;5.464;2024-01-06T00:28:40;100187.25;;;21.92;44.92
55187;BME280;55457;52.002;5.464;2024-01-06T00:31:06;100187.53;;;21.90;44.81
55187;BME280;55457;52.002;5.464;2024-01-06T00:33:31;100187.25;;;21.92;45.13
55187;BME280;55457;52.002;5.464;2024-01-06T00:35:56;100186.72;;;21.89;45.19
55187;BME280;55457;52.002;5.464;2024-01-06T00:38:22;100191.31;;;21.89;44.86
55187;BME280;55457;52.002;5.464;2024-01-06T00:40:47;100191.31;;;21.89;44.93
55187;BME280;55457;52.002;5.464;2024-01-06T00:43:12;100200.56;;;21.88;44.85
55187;BME280;55457;52.002;5.464;2024-01-06T00:45:37;100205.97;;;21.88;44.82
55187;BME280;55457;52.002;5.464;2024-01-06T00:48:03;100200.56;;;21.88;45.17
55187;BME280;55457;52.002;5.464;2024-01-06T00:50:29;100205.16;;;21.87;44.92
55187;BME280;55457;52.002;5.464;2024-01-06T00:52:54;100205.41;;;21.86;44.79
55187;BME280;55457;52.002;5.464;2024-01-06T00:55:20;100207.88;;;21.87;45.08
55187;BME280;55457;52.002;5.464;2024-01-06T00:57:45;100209.22;;;21.85;45.19
55187;BME280;55457;52.002;5.464;2024-01-06T01:00:11;100208.13;;;21.86;44.73
55187;BME280;55457;52.002;5.464;2024-01-06T01:02:36;100216.25;;;21.86;45.09
55187;BME280;55457;52.002;5.464;2024-01-06T01:05:02;100220.88;;;21.85;45.02
55187;BME280;55457;52.002;5.464;2024-01-06T01:07:27;100220.06;;;21.85;45.04
55187;BME280;55457;52.002;5.464;2024-01-06T01:09:53;100229.81;;;21.86;44.91
55187;BME280;55457;52.002;5.464;2024-01-06T01:12:18;100226.56;;;21.84;44.92
55187;BME280;55457;52.002;5.464;2024-01-06T01:14:43;100230.38;;;21.83;44.97
55187;BME280;55457;52.002;5.464;2024-01-06T01:17:08;100237.69;;;21.82;45.00
55187;BME280;55457;52.002;5.464;2024-01-06T01:19:34;100240.13;;;21.84;44.97
55187;BME280;55457;52.002;5.464;2024-01-06T01:21:59;100243.94;;;21.83;44.92
55187;BME280;55457;52.002;5.464;2024-01-06T01:24:24;100245.84;;;21.82;44.98
55187;BME280;55457;52.002;5.464;2024-01-06T01:26:50;100249.59;;;21.81;44.90
55187;BME280;55457;52.002;5.464;2024-01-06T01:29:16;100246.09;;;21.81;45.02
55187;BME280;55457;52.002;5.464;2024-01-06T01:31:41;100250.41;;;21.82;45.32
55187;BME280;55457;52.002;5.464;2024-01-06T01:34:06;100254.22;;;21.81;45.03
55187;BME280;55457;52.002;5.464;2024-01-06T01:36:32;100256.94;;;21.81;44.99
55187;BME280;55457;52.002;5.464;2024-01-06T01:38:57;100265.06;;;21.81;45.14
55187;BME280;55457;52.002;5.464;2024-01-06T01:41:22;100272.13;;;21.82;45.24
55187;BME280;55457;52.002;5.464;2024-01-06T01:43:48;100277.53;;;21.82;45.04
55187;BME280;55457;52.002;5.464;2024-01-06T01:46:13;100282.97;;;21.82;45.05
55187;BME280;55457;52.002;5.464;2024-01-06T01:48:39;100279.19;;;21.83;44.84
55187;BME280;55457;52.002;5.464;2024-01-06T01:51:05;100285.44;;;21.83;44.82
55187;BME280;55457;52.002;5.464;2024-01-06T01:53:31;100286.25;;;21.84;44.87
55187;BME280;55457;52.002;5.464;2024-01-06T01:55:56;100293.31;;;21.85;45.03
55187;BME280;55457;52.002;5.464;2024-01-06T01:58:23;100287.06;;;21.84;45.02
55187;BME280;55457;52.002;5.464;2024-01-06T02:00:48;100294.94;;;21.86;44.83
55187;BME280;55457;52.002;5.464;2024-01-06T02:03:14;100297.41;;;21.87;44.74
55187;BME280;55457;52.002;5.464;2024-01-06T02:05:40;100309.06;;;21.88;45.08
55187;BME280;55457;52.002;5.464;2024-01-06T02:08:05;100304.44;;;21.88;44.73
55187;BME280;55457;52.002;5.464;2024-01-06T02:10:31;100319.34;;;21.91;45.03
55187;BME280;55457;52.002;5.464;2024-01-06T02:12:56;100318.28;;;21.92;44.73
55187;BME280;55457;52.002;5.464;2024-01-06T02:15:21;100319.13;;;21.93;44.79
55187;BME280;55457;52.002;5.464;2024-01-06T02:17:47;100324.25;;;21.94;44.78
55187;BME280;55457;52.002;5.464;2024-01-06T02:20:13;100325.88;;;21.95;44.62
55187;BME280;55457;52.002;5.464;2024-01-06T02:22:39;100320.97;;;21.92;44.77
55187;BME280;55457;52.002;5.464;2024-01-06T02:25:07;100322.09;;;21.96;44.84
55187;BME280;55457;52.002;5.464;2024-01-06T02:27:37;100328.09;;;21.98;44.67
55187;BME280;55457;52.002;5.464;2024-01-06T02:30:03;100331.84;;;21.97;44.64
55187;BME280;55457;52.002;5.464;2024-01-06T02:32:28;100328.91;;;21.99;44.59
55187;BME280;55457;52.002;5.464;2024-01-06T02:34:54;100327.00;;;21.99;44.39
55187;BME280;55457;52.002;5.464;2024-01-06T02:37:19;100343.28;;;21.99;44.73
55187;BME280;55457;52.002;5.464;2024-01-06T02:39:44;100344.91;;;22.00;44.64
55187;BME280;55457;52.002;5.464;2024-01-06T02:42:10;100347.63;;;22.00;44.53
55187;BME280;55457;52.002;5.464;2024-01-06T02:44:41;100351.13;;;22.01;44.36
55187;BME280;55457;52.002;5.464;2024-01-06T02:47:06;100352.22;;;22.00;44.75
55187;BME280;55457;52.002;5.464;2024-01-06T02:49:31;100355.75;;;22.00;44.52
55187;BME280;55457;52.002;5.464;2024-01-06T02:51:57;100357.38;;;22.01;44.55
55187;BME280;55457;52.002;5.464;2024-01-06T02:54:22;100359.28;;;22.01;44.30
55187;BME280;55457;52.002;5.464;2024-01-06T02:56:47;100358.47;;;22.00;44.52
55187;BME280;55457;52.002;5.464;2024-01-06T02:59:13;100361.19;;;22.00;44.18
55187;BME280;55457;52.002;5.464;2024-01-06T03:01:38;100356.84;;;21.99;44.26
55187;BME280;55457;52.002;5.464;2024-01-06T03:04:03;100360.09;;;22.01;44.40
55187;BME280;55457;52.002;5.464;2024-01-06T03:06:28;100361.19;;;22.00;44.65
55187;BME280;55457;52.002;5.464;2024-01-06T03:08:54;100367.41;;;22.01;44.23
55187;BME280;55457;52.002;5.464;2024-01-06T03:11:19;100364.72;;;22.01;44.25
55187;BME280;55457;52.002;5.464;2024-01-06T03:13:44;100365.53;;;22.01;44.33
55187;BME280;55457;52.002;5.464;2024-01-06T03:16:11;100367.13;;;21.97;44.32
55187;BME280;55457;52.002;5.464;2024-01-06T03:18:36;100376.66;;;22.00;44.57
55187;BME280;55457;52.002;5.464;2024-01-06T03:21:03;100385.31;;;22.02;44.23
55187;BME280;55457;52.002;5.464;2024-01-06T03:23:29;100380.72;;;22.02;44.60
55187;BME280;55457;52.002;5.464;2024-01-06T03:25:54;100383.44;;;22.02;44.56
55187;BME280;55457;52.002;5.464;2024-01-06T03:28:19;100386.13;;;22.02;44.58
55187;BME280;55457;52.002;5.464;2024-01-06T03:30:45;100392.13;;;22.04;44.55
55187;BME280;55457;52.002;5.464;2024-01-06T03:33:10;100396.47;;;22.05;44.23
55187;BME280;55457;52.002;5.464;2024-01-06T03:35:37;100392.94;;;22.05;44.10
55187;BME280;55457;52.002;5.464;2024-01-06T03:38:02;100396.19;;;22.07;44.08
55187;BME280;55457;52.002;5.464;2024-01-06T03:40:28;100403.53;;;22.06;44.38
55187;BME280;55457;52.002;5.464;2024-01-06T03:42:53;100407.34;;;22.05;44.23
55187;BME280;55457;52.002;5.464;2024-01-06T03:45:19;100416.00;;;22.07;43.97
55187;BME280;55457;52.002;5.464;2024-01-06T03:47:44;100411.66;;;22.06;44.33
55187;BME280;55457;52.002;5.464;2024-01-06T03:50:10;100422.25;;;22.08;44.06
55187;BME280;55457;52.002;5.464;2024-01-06T03:52:35;100424.72;;;22.09;44.35
55187;BME280;55457;52.002;5.464;2024-01-06T03:55:00;100423.09;;;22.08;44.21
55187;BME280;55457;52.002;5.464;2024-01-06T03:57:25;100427.44;;;22.09;44.02
55187;BME280;55457;52.002;5.464;2024-01-06T03:59:51;100433.94;;;22.08;44.21
55187;BME280;55457;52.002;5.464;2024-01-06T04:02:16;100428.53;;;22.08;44.12
55187;BME280;55457;52.002;5.464;2024-01-06T04:04:41;100433.94;;;22.08;44.08
55187;BME280;55457;52.002;5.464;2024-01-06T04:07:06;100437.72;;;22.07;43.93
55187;BME280;55457;52.002;5.464;2024-01-06T04:09:32;100439.38;;;22.08;43.79
55187;BME280;55457;52.002;5.464;2024-01-06T04:11:57;100449.38;;;22.08;43.79
55187;BME280;55457;52.002;5.464;2024-01-06T04:14:23;100452.38;;;22.06;43.52
55187;BME280;55457;52.002;5.464;2024-01-06T04:16:48;100446.94;;;22.06;43.73
55187;BME280;55457;52.002;5.464;2024-01-06T04:19:13;100453.19;;;22.07;44.03
55187;BME280;55457;52.002;5.464;2024-01-06T04:21:40;100454.00;;;22.07;43.99
55187;BME280;55457;52.002;5.464;2024-01-06T04:24:05;100444.22;;;22.06;43.76
55187;BME280;55457;52.002;5.464;2024-01-06T04:26:31;100450.75;;;22.05;43.63
55187;BME280;55457;52.002;5.464;2024-01-06T04:28:56;100443.69;;;22.04;43.81
55187;BME280;55457;52.002;5.464;2024-01-06T04:31:21;100448.56;;;22.07;43.77
55187;BME280;55457;52.002;5.464;2024-01-06T04:33:46;100457.00;;;22.06;44.00
55187;BME280;55457;52.002;5.464;2024-01-06T04:36:12;100458.63;;;22.07;43.63
55187;BME280;55457;52.002;5.464;2024-01-06T04:38:37;100459.69;;;22.06;43.96
55187;BME280;55457;52.002;5.464;2024-01-06T04:41:03;100462.41;;;22.06;43.56
55187;BME280;55457;52.002;5.464;2024-01-06T04:43:28;100467.03;;;22.05;43.66
55187;BME280;55457;52.002;5.464;2024-01-06T04:45:53;100467.84;;;22.06;43.90
55187;BME280;55457;52.002;5.464;2024-01-06T04:48:19;100467.03;;;22.05;43.58
55187;BME280;55457;52.002;5.464;2024-01-06T04:50:44;100472.72;;;22.04;43.88
55187;BME280;55457;52.002;5.464;2024-01-06T04:53:09;100477.06;;;22.05;43.51
55187;BME280;55457;52.002;5.464;2024-01-06T04:55:34;100482.78;;;22.03;43.33
55187;BME280;55457;52.002;5.464;2024-01-06T04:58:00;100482.78;;;22.03;43.41
55187;BME280;55457;52.002;5.464;2024-01-06T05:00:25;100487.34;;;22.03;43.36
55187;BME280;55457;52.002;5.464;2024-01-06T05:02:51;100486.53;;;22.02;43.27
55187;BME280;55457;52.002;5.464;2024-01-06T05:05:16;100494.69;;;22.02;43.45
55187;BME280;55457;52.002;5.464;2024-01-06T05:07:42;100494.69;;;22.02;43.25
55187;BME280;55457;52.002;5.464;2024-01-06T05:10:08;100498.47;;;22.01;43.63
55187;BME280;55457;52.002;5.464;2024-01-06T05:12:33;100498.47;;;22.01;43.33
55187;BME280;55457;52.002;5.464;2024-01-06T05:14:58;100503.91;;;22.01;43.49
55187;BME280;55457;52.002;5.464;2024-01-06T05:17:24;100507.69;;;22.00;43.24
55187;BME280;55457;52.002;5.464;2024-01-06T05:19:49;100507.69;;;22.00;43.06
55187;BME280;55457;52.002;5.464;2024-01-06T05:22:14;100513.13;;;22.00;42.90
55187;BME280;55457;52.002;5.464;2024-01-06T05:24:39;100514.44;;;21.98;43.39
55187;BME280;55457;52.002;5.464;2024-01-06T05:27:05;100515.31;;;21.98;43.30
55187;BME280;55457;52.002;5.464;2024-01-06T05:29:30;100522.34;;;21.99;43.45
55187;BME280;55457;52.002;5.464;2024-01-06T05:31:55;100522.34;;;21.99;43.32
55187;BME280;55457;52.002;5.464;2024-01-06T05:34:21;100522.34;;;21.99;43.30
55187;BME280;55457;52.002;5.464;2024-01-06T05:36:46;100523.44;;;21.98;43.26
55187;BME280;55457;52.002;5.464;2024-01-06T05:39:11;100526.97;;;21.99;43.02
55187;BME280;55457;52.002;5.464;2024-01-06T05:41:38;100526.16;;;21.98;43.48
55187;BME280;55457;52.002;5.464;2024-01-06T05:44:04;100534.28;;;21.98;43.24
55187;BME280;55457;52.002;5.464;2024-01-06T05:46:29;100531.56;;;21.98;43.31
55187;BME280;55457;52.002;5.464;2024-01-06T05:48:55;100534.28;;;21.98;43.44
55187;BME280;55457;52.002;5.464;2024-01-06T05:51:21;100540.78;;;21.97;43.26
55187;BME280;55457;52.002;5.464;2024-01-06T05:53:46;100540.78;;;21.97;43.53
55187;BME280;55457;52.002;5.464;2024-01-06T05:56:22;100540.78;;;21.97;43.59
55187;BME280;55457;52.002;5.464;2024-01-06T05:58:47;100540.78;;;21.97;43.32
55187;BME280;55457;52.002;5.464;2024-01-06T06:01:13;100546.19;;;21.97;43.12
55187;BME280;55457;52.002;5.464;2024-01-06T06:03:39;100546.75;;;21.94;43.39
55187;BME280;55457;52.002;5.464;2024-01-06T06:06:04;100556.25;;;21.97;43.44
55187;BME280;55457;52.002;5.464;2024-01-06T06:08:29;100560.03;;;21.96;43.31
55187;BME280;55457;52.002;5.464;2024-01-06T06:10:55;100559.22;;;21.95;43.39
55187;BME280;55457;52.002;5.464;2024-01-06T06:13:29;100564.66;;;21.95;43.39
55187;BME280;55457;52.002;5.464;2024-01-06T06:15:55;100563.84;;;21.95;43.24
55187;BME280;55457;52.002;5.464;2024-01-06T06:18:20;100564.66;;;21.95;43.45
55187;BME280;55457;52.002;5.464;2024-01-06T06:20:45;100583.09;;;21.93;43.30
55187;BME280;55457;52.002;5.464;2024-01-06T06:23:12;100573.88;;;21.94;43.70
55187;BME280;55457;52.002;5.464;2024-01-06T06:25:40;100588.25;;;21.95;42.95
55187;BME280;55457;52.002;5.464;2024-01-06T06:28:06;100587.44;;;21.94;43.34
55187;BME280;55457;52.002;5.464;2024-01-06T06:30:32;100585.81;;;21.93;43.05
55187;BME280;55457;52.002;5.464;2024-01-06T06:32:57;100592.28;;;21.92;43.08
55187;BME280;55457;52.002;5.464;2024-01-06T06:35:23;100600.44;;;21.92;43.13
55187;BME280;55457;52.002;5.464;2024-01-06T06:37:49;100608.56;;;21.92;43.31
55187;BME280;55457;52.002;5.464;2024-01-06T06:40:14;100604.22;;;21.91;43.24
55187;BME280;55457;52.002;5.464;2024-01-06T06:42:40;100615.06;;;21.91;42.92
55187;BME280;55457;52.002;5.464;2024-01-06T06:45:05;100616.16;;;21.90;43.02
55187;BME280;55457;52.002;5.464;2024-01-06T06:47:31;100627.00;;;21.90;43.32
55187;BME280;55457;52.002;5.464;2024-01-06T06:49:56;100626.19;;;21.89;43.00
55187;BME280;55457;52.002;5.464;2024-01-06T06:52:21;100637.03;;;21.89;43.01
55187;BME280;55457;52.002;5.464;2024-01-06T06:54:46;100635.41;;;21.88;42.79
55187;BME280;55457;52.002;5.464;2024-01-06T06:57:14;100632.94;;;21.87;42.83
55187;BME280;55457;52.002;5.464;2024-01-06T06:59:39;100642.97;;;21.86;42.98
55187;BME280;55457;52.002;5.464;2024-01-06T07:02:05;100646.50;;;21.87;43.06
55187;BME280;55457;52.002;5.464;2024-01-06T07:04:30;100646.50;;;21.87;43.13
55187;BME280;55457;52.002;5.464;2024-01-06T07:06:56;100662.78;;;21.87;42.96
55187;BME280;55457;52.002;5.464;2024-01-06T07:09:22;100659.25;;;21.86;42.96
55187;BME280;55457;52.002;5.464;2024-01-06T07:11:48;100668.22;;;21.87;42.92
55187;BME280;55457;52.002;5.464;2024-01-06T07:14:14;100666.84;;;21.84;42.86
55187;BME280;55457;52.002;5.464;2024-01-06T07:16:39;100673.91;;;21.85;42.77
55187;BME280;55457;52.002;5.464;2024-01-06T07:19:04;100675.25;;;21.83;42.54
55187;BME280;55457;52.002;5.464;2024-01-06T07:21:30;100683.94;;;21.85;42.82
55187;BME280;55457;52.002;5.464;2024-01-06T07:23:56;100686.66;;;21.85;42.77
55187;BME280;55457;52.002;5.464;2024-01-06T07:26:21;100691.25;;;21.84;42.96
55187;BME280;55457;52.002;5.464;2024-01-06T07:28:46;100698.59;;;21.84;42.58
55187;BME280;55457;52.002;5.464;2024-01-06T07:31:12;100691.53;;;21.83;42.78
55187;BME280;55457;52.002;5.464;2024-01-06T07:33:37;100696.94;;;21.83;42.30
55187;BME280;55457;52.002;5.464;2024-01-06T07:36:02;100696.94;;;21.83;42.47
55187;BME280;55457;52.002;5.464;2024-01-06T07:38:28;100703.44;;;21.82;42.48
55187;BME280;55457;52.002;5.464;2024-01-06T07:40:56;100700.72;;;21.82;42.54
55187;BME280;55457;52.002;5.464;2024-01-06T07:43:21;100717.00;;;21.82;42.55
55187;BME280;55457;52.002;5.464;2024-01-06T07:45:46;100720.78;;;21.81;42.50
55187;BME280;55457;52.002;5.464;2024-01-06T07:48:11;100715.34;;;21.81;42.67
55187;BME280;55457;52.002;5.464;2024-01-06T07:50:37;100723.50;;;21.81;42.75
55187;BME280;55457;52.002;5.464;2024-01-06T07:53:03;100730.00;;;21.80;42.24
55187;BME280;55457;52.002;5.464;2024-01-06T07:55:28;100740.84;;;21.80;42.49
55187;BME280;55457;52.002;5.464;2024-01-06T07:57:54;100739.22;;;21.79;42.38
55187;BME280;55457;52.002;5.464;2024-01-06T08:00:19;100740.84;;;21.80;42.55
55187;BME280;55457;52.002;5.464;2024-01-06T08:02:45;100737.31;;;21.79;42.42
55187;BME280;55457;52.002;5.464;2024-01-06T08:05:10;100741.94;;;21.79;42.50
55187;BME280;55457;52.002;5.464;2024-01-06T08:07:37;100744.66;;;21.79;42.07
55187;BME280;55457;52.002;5.464;2024-01-06T08:10:02;100758.22;;;21.79;42.14
55187;BME280;55457;52.002;5.464;2024-01-06T08:12:31;100763.06;;;21.77;42.56
55187;BME280;55457;52.002;5.464;2024-01-06T08:14:57;100769.31;;;21.77;42.36
55187;BME280;55457;52.002;5.464;2024-01-06T08:17:23;100763.56;;;21.74;42.46
55187;BME280;55457;52.002;5.464;2024-01-06T08:19:48;100770.38;;;21.76;42.28
55187;BME280;55457;52.002;5.464;2024-01-06T08:22:14;100773.91;;;21.77;42.71
55187;BME280;55457;52.002;5.464;2024-01-06T08:24:39;100766.84;;;21.76;42.35
55187;BME280;55457;52.002;5.464;2024-01-06T08:27:04;100774.16;;;21.75;42.47
55187;BME280;55457;52.002;5.464;2024-01-06T08:29:30;100780.94;;;21.73;42.55
55187;BME280;55457;52.002;5.464;2024-01-06T08:31:55;100772.78;;;21.73;42.44
55187;BME280;55457;52.002;5.464;2024-01-06T08:34:21;100786.91;;;21.75;42.48
55187;BME280;55457;52.002;5.464;2024-01-06T08:36:46;100788.53;;;21.76;42.26
55187;BME280;55457;52.002;5.464;2024-01-06T08:39:12;100788.25;;;21.72;42.43
55187;BME280;55457;52.002;5.464;2024-01-06T08:41:38;100792.34;;;21.75;42.44
55187;BME280;55457;52.002;5.464;2024-01-06T08:44:03;100798.56;;;21.75;42.03
55187;BME280;55457;52.002;5.464;2024-01-06T08:46:29;100803.19;;;21.75;42.09
55187;BME280;55457;52.002;5.464;2024-01-06T08:48:55;100807.78;;;21.74;42.15
55187;BME280;55457;52.002;5.464;2024-01-06T08:51:21;100819.47;;;21.75;42.41
55187;BME280;55457;52.002;5.464;2024-01-06T08:53:46;100817.81;;;21.74;42.24
55187;BME280;55457;52.002;5.464;2024-01-06T08:56:11;100822.44;;;21.73;42.31
55187;BME280;55457;52.002;5.464;2024-01-06T08:58:36;100827.59;;;21.75;42.51
55187;BME280;55457;52.002;5.464;2024-01-06T09:01:02;100833.84;;;21.75;42.15
55187;BME280;55457;52.002;5.464;2024-01-06T09:03:27;100843.59;;;21.76;42.44
55187;BME280;55457;52.002;5.464;2024-01-06T09:05:54;100839.53;;;21.74;42.29
55187;BME280;55457;52.002;5.464;2024-01-06T09:08:20;100847.16;;;21.77;42.06
55187;BME280;55457;52.002;5.464;2024-01-06T09:10:45;100849.03;;;21.76;42.09
55187;BME280;55457;52.002;5.464;2024-01-06T09:13:11;100842.78;;;21.76;42.21
55187;BME280;55457;52.002;5.464;2024-01-06T09:15:36;100853.97;;;21.79;41.77
55187;BME280;55457;52.002;5.464;2024-01-06T09:18:01;100849.38;;;21.80;41.88
55187;BME280;55457;52.002;5.464;2024-01-06T09:20:27;100863.47;;;21.82;41.99
55187;BME280;55457;52.002;5.464;2024-01-06T09:22:53;100854.28;;;21.83;41.92
55187;BME280;55457;52.002;5.464;2024-01-06T09:25:18;100858.06;;;21.82;41.96
55187;BME280;55457;52.002;5.464;2024-01-06T09:27:44;100858.38;;;21.85;42.12
55187;BME280;55457;52.002;5.464;2024-01-06T09:30:09;100872.75;;;21.86;41.96
55187;BME280;55457;52.002;5.464;2024-01-06T09:32:35;100875.25;;;21.87;41.68
55187;BME280;55457;52.002;5.464;2024-01-06T09:35:00;100883.94;;;21.89;41.85
55187;BME280;55457;52.002;5.464;2024-01-06T09:37:25;100882.88;;;21.91;41.79
55187;BME280;55457;52.002;5.464;2024-01-06T09:39:50;100879.06;;;21.92;41.61
55187;BME280;55457;52.002;5.464;2024-01-06T09:42:16;100887.78;;;21.94;41.90
55187;BME280;55457;52.002;5.464;2024-01-06T09:44:42;100894.03;;;21.94;41.92
55187;BME280;55457;52.002;5.464;2024-01-06T09:47:09;100897.56;;;21.95;41.77
55187;BME280;55457;52.002;5.464;2024-01-06T09:49:38;100894.84;;;21.95;41.87
55187;BME280;55457;52.002;5.464;2024-01-06T09:52:14;100898.38;;;21.95;41.93
55187;BME280;55457;52.002;5.464;2024-01-06T09:54:48;100898.66;;;21.94;41.83
55187;BME280;55457;52.002;5.464;2024-01-06T09:57:15;100908.16;;;21.96;41.86
55187;BME280;55457;52.002;5.464;2024-01-06T09:59:40;100909.78;;;21.97;41.94
55187;BME280;55457;52.002;5.464;2024-01-06T10:02:07;100909.78;;;21.97;41.71
55187;BME280;55457;52.002;5.464;2024-01-06T10:04:33;100916.88;;;21.98;41.71
55187;BME280;55457;52.002;5.464;2024-01-06T10:06:58;100921.47;;;21.98;41.71
55187;BME280;55457;52.002;5.464;2024-01-06T10:09:27;100929.38;;;21.99;41.81
55187;BME280;55457;52.002;5.464;2024-01-06T10:11:56;100932.91;;;22.00;41.62
55187;BME280;55457;52.002;5.464;2024-01-06T10:14:25;100929.13;;;22.01;42.20
55187;BME280;55457;52.002;5.464;2024-01-06T10:16:53;100940.78;;;22.01;42.24
55187;BME280;55457;52.002;5.464;2024-01-06T10:19:19;100940.22;;;21.99;41.53
55187;BME280;55457;52.002;5.464;2024-01-06T10:21:44;100949.44;;;21.98;41.71
55187;BME280;55457;52.002;5.464;2024-01-06T10:24:10;100940.72;;;21.96;42.33
55187;BME280;55457;52.002;5.464;2024-01-06T10:26:36;100952.41;;;21.97;42.43
55187;BME280;55457;52.002;5.464;2024-01-06T10:29:01;100963.25;;;21.97;42.51
55187;BME280;55457;52.002;5.464;2024-01-06T10:31:27;100969.50;;;21.97;42.84
55187;BME280;55457;52.002;5.464;2024-01-06T10:33:53;100962.44;;;21.96;43.04
55187;BME280;55457;52.002;5.464;2024-01-06T10:36:19;100965.16;;;21.96;42.84
55187;BME280;55457;52.002;5.464;2024-01-06T10:38:44;100968.94;;;21.95;43.28
55187;BME280;55457;52.002;5.464;2024-01-06T10:41:11;100965.41;;;21.95;43.04
55187;BME280;55457;52.002;5.464;2024-01-06T10:43:37;100962.44;;;21.96;43.18
55187;BME280;55457;52.002;5.464;2024-01-06T10:46:06;100974.38;;;21.95;43.00
55187;BME280;55457;52.002;5.464;2024-01-06T10:48:36;100973.28;;;21.96;43.18
55187;BME280;55457;52.002;5.464;2024-01-06T10:51:04;100964.06;;;21.97;43.58
55187;BME280;55457;52.002;5.464;2024-01-06T10:53:33;100970.31;;;21.98;43.57
55187;BME280;55457;52.002;5.464;2024-01-06T10:56:01;100969.50;;;21.97;43.45
55187;BME280;55457;52.002;5.464;2024-01-06T10:58:27;100972.81;;;21.99;43.11
55187;BME280;55457;52.002;5.464;2024-01-06T11:00:56;100982.00;;;21.98;43.50
55187;BME280;55457;52.002;5.464;2024-01-06T11:03:22;100981.75;;;22.00;43.13
55187;BME280;55457;52.002;5.464;2024-01-06T11:05:47;100982.56;;;22.00;43.38
55187;BME280;55457;52.002;5.464;2024-01-06T11:08:17;100970.66;;;22.01;43.53
55187;BME280;55457;52.002;5.464;2024-01-06T11:10:43;100987.19;;;22.00;42.91
55187;BME280;55457;52.002;5.464;2024-01-06T11:13:12;100980.69;;;22.01;43.08
55187;BME280;55457;52.002;5.464;2024-01-06T11:15:42;100994.00;;;22.02;43.09
55187;BME280;55457;52.002;5.464;2024-01-06T11:18:08;100990.47;;;22.02;43.00
55187;BME280;55457;52.002;5.464;2024-01-06T11:20:33;100995.06;;;22.01;42.92
55187;BME280;55457;52.002;5.464;2024-01-06T11:23:18;100990.97;;;21.99;43.02
55187;BME280;55457;52.002;5.464;2024-01-06T11:25:47;100998.59;;;22.02;43.01
55187;BME280;55457;52.002;5.464;2024-01-06T11:28:12;100987.75;;;22.02;43.32
55187;BME280;55457;52.002;5.464;2024-01-06T11:30:38;100994.81;;;22.03;43.04
55187;BME280;55457;52.002;5.464;2024-01-06T11:33:04;100993.75;;;22.04;43.01
55187;BME280;55457;52.002;5.464;2024-01-06T11:35:30;100992.34;;;22.01;42.81
55187;BME280;55457;52.002;5.464;2024-01-06T11:37:57;100997.78;;;22.01;41.48
55187;BME280;55457;52.002;5.464;2024-01-06T11:40:24;100994.50;;;21.99;41.41
55187;BME280;55457;52.002;5.464;2024-01-06T11:45:30;101000.75;;;22.00;42.74
55187;BME280;55457;52.002;5.464;2024-01-06T11:48:01;100990.38;;;21.97;42.87
55187;BME280;55457;52.002;5.464;2024-01-06T11:50:31;101001.00;;;21.98;42.08
55187;BME280;55457;52.002;5.464;2024-01-06T11:52:57;100993.38;;;21.95;42.45
55187;BME280;55457;52.002;5.464;2024-01-06T11:55:25;101003.72;;;21.98;42.44
55187;BME280;55457;52.002;5.464;2024-01-06T11:57:53;101006.44;;;21.98;42.96
55187;BME280;55457;52.002;5.464;2024-01-06T12:00:18;100999.94;;;21.99;43.12
55187;BME280;55457;52.002;5.464;2024-01-06T12:02:44;100992.88;;;21.98;43.29
55187;BME280;55457;52.002;5.464;2024-01-06T12:05:13;101001.56;;;22.00;42.88
55187;BME280;55457;52.002;5.464;2024-01-06T12:07:41;101000.16;;;21.98;42.53
55187;BME280;55457;52.002;5.464;2024-01-06T12:10:07;100999.94;;;21.99;42.56
55187;BME280;55457;52.002;5.464;2024-01-06T12:12:33;100999.94;;;21.99;42.77
55187;BME280;55457;52.002;5.464;2024-01-06T12:14:58;101004.53;;;21.99;43.15
55187;BME280;55457;52.002;5.464;2024-01-06T12:17:28;100999.94;;;21.99;43.09
55187;BME280;55457;52.002;5.464;2024-01-06T12:19:54;101005.38;;;21.99;43.00
55187;BME280;55457;52.002;5.464;2024-01-06T12:22:19;101007.00;;;22.00;43.03
55187;BME280;55457;52.002;5.464;2024-01-06T12:24:45;101007.00;;;22.00;43.02
55187;BME280;55457;52.002;5.464;2024-01-06T12:27:10;101007.81;;;22.01;43.18
55187;BME280;55457;52.002;5.464;2024-01-06T12:29:40;101015.97;;;22.01;43.35
55187;BME280;55457;52.002;5.464;2024-01-06T12:32:06;101012.44;;;22.00;43.23
55187;BME280;55457;52.002;5.464;2024-01-06T12:34:32;101010.53;;;22.01;43.22
55187;BME280;55457;52.002;5.464;2024-01-06T12:36:58;101024.09;;;22.01;43.35
55187;BME280;55457;52.002;5.464;2024-01-06T12:39:27;101023.28;;;22.00;43.63
55187;BME280;55457;52.002;5.464;2024-01-06T12:41:52;101018.94;;;21.99;43.52
55187;BME280;55457;52.002;5.464;2024-01-06T12:44:17;101016.22;;;21.99;43.58
55187;BME280;55457;52.002;5.464;2024-01-06T12:46:43;101025.44;;;21.98;43.04